createdAt,value
2022-07-28T00:00:48.443Z,10.13
2022-07-28T00:03:15.065Z,10.30
2022-07-28T00:05:41.755Z,10.73
2022-07-28T00:08:10.267Z,10.25
2022-07-28T00:10:36.986Z,11.10
2022-07-28T00:13:06.685Z,11.05
2022-07-28T00:15:33.704Z,11.25
2022-07-28T00:18:01.153Z,11.68
2022-07-28T00:20:30.574Z,10.95
2022-07-28T00:22:57.247Z,10.13
2022-07-28T00:25:24.078Z,11.35
2022-07-28T00:27:50.733Z,11.98
2022-07-28T00:30:17.338Z,11.40
2022-07-28T00:32:44.090Z,11.02
2022-07-28T00:35:10.762Z,11.18
2022-07-28T00:37:40.051Z,11.38
2022-07-28T00:40:08.280Z,11.25
2022-07-28T00:42:34.891Z,11.25
2022-07-28T00:45:01.740Z,11.80
2022-07-28T00:47:34.045Z,11.68
2022-07-28T00:50:02.268Z,11.70
2022-07-28T00:52:29.015Z,12.38
2022-07-28T00:54:56.904Z,12.05
2022-07-28T00:57:23.546Z,12.15
2022-07-28T00:59:50.142Z,11.98
2022-07-28T01:02:16.915Z,11.85
2022-07-28T01:04:43.656Z,12.93
2022-07-28T01:07:53.568Z,11.38
2022-07-28T01:10:32.366Z,11.95
2022-07-28T01:13:04.224Z,11.75
2022-07-28T01:15:37.844Z,11.75
2022-07-28T01:18:15.044Z,11.73
2022-07-28T01:23:17.123Z,11.00
2022-07-28T01:26:01.157Z,11.45
2022-07-28T01:28:56.725Z,12.50
2022-07-28T01:31:26.380Z,12.45
2022-07-28T01:33:57.240Z,12.23
2022-07-28T01:36:33.137Z,12.40
2022-07-28T01:39:01.467Z,12.25
2022-07-28T01:41:30.913Z,12.93
2022-07-28T01:44:03.020Z,11.75
2022-07-28T01:46:30.462Z,11.95
2022-07-28T01:48:59.678Z,12.40
2022-07-28T01:51:29.409Z,12.48
2022-07-28T01:53:59.250Z,13.25
2022-07-28T01:56:28.352Z,13.73
2022-07-28T01:58:58.379Z,12.85
2022-07-28T02:01:26.858Z,13.00
2022-07-28T02:03:56.434Z,13.68
2022-07-28T02:06:23.889Z,13.07
2022-07-28T02:08:51.668Z,14.50
2022-07-28T02:11:37.301Z,13.82
2022-07-28T02:14:04.889Z,13.50
2022-07-28T02:16:32.281Z,13.95
2022-07-28T02:21:29.860Z,12.23
2022-07-28T02:23:58.591Z,12.32
2022-07-28T02:26:32.055Z,12.40
2022-07-28T02:29:01.658Z,12.93
2022-07-28T02:31:42.159Z,13.32
2022-07-28T02:34:12.878Z,12.63
2022-07-28T02:36:48.426Z,12.10
2022-07-28T02:39:23.875Z,11.30
2022-07-28T02:41:58.209Z,10.88
2022-07-28T02:44:30.646Z,11.13
2022-07-28T02:46:58.883Z,11.15
2022-07-28T02:49:31.145Z,11.85
2022-07-28T02:51:59.858Z,12.57
2022-07-28T02:54:27.867Z,12.02
2022-07-28T02:56:57.689Z,11.70
2022-07-28T02:59:26.200Z,12.52
2022-07-28T03:01:53.656Z,12.77
2022-07-28T03:04:41.308Z,12.93
2022-07-28T03:07:08.665Z,13.32
2022-07-28T03:09:42.949Z,12.35
2022-07-28T03:12:10.894Z,12.52
2022-07-28T03:14:37.993Z,12.77
2022-07-28T03:17:05.445Z,11.88
2022-07-28T03:19:32.371Z,12.35
2022-07-28T03:21:58.997Z,12.23
2022-07-28T03:24:28.991Z,11.55
2022-07-28T03:27:03.537Z,12.05
2022-07-28T03:29:32.709Z,11.80
2022-07-28T03:32:00.695Z,11.95
2022-07-28T03:34:28.999Z,11.82
2022-07-28T03:37:04.533Z,12.13
2022-07-28T03:39:35.993Z,12.88
2022-07-28T03:42:04.046Z,13.80
2022-07-28T03:44:31.359Z,13.30
2022-07-28T03:49:24.929Z,14.18
2022-07-28T03:51:51.504Z,15.32
2022-07-28T03:54:18.082Z,16.13
2022-07-28T03:56:44.745Z,16.05
2022-07-28T03:59:11.448Z,16.20
2022-07-28T04:01:38.461Z,17.13
2022-07-28T04:04:05.826Z,16.90
2022-07-28T04:08:59.286Z,14.07
2022-07-28T04:11:25.892Z,14.30
2022-07-28T04:13:52.641Z,14.13
2022-07-28T04:16:19.303Z,13.48
2022-07-28T04:18:49.030Z,13.38
2022-07-28T04:21:16.251Z,12.27
2022-07-28T04:23:42.798Z,12.50
2022-07-28T04:26:09.364Z,11.27
2022-07-28T04:28:36.059Z,11.60
2022-07-28T04:31:02.718Z,11.23
2022-07-28T04:33:30.648Z,9.00
2022-07-28T04:35:57.299Z,9.50
2022-07-28T04:38:23.952Z,8.82
2022-07-28T04:40:50.568Z,8.93
2022-07-28T04:43:17.169Z,9.60
2022-07-28T04:45:47.859Z,9.77
2022-07-28T04:50:47.679Z,8.55
2022-07-28T04:53:14.311Z,8.98
2022-07-28T04:55:40.991Z,9.13
2022-07-28T04:58:09.333Z,10.52
2022-07-28T05:00:36.207Z,10.98
2022-07-28T05:03:04.318Z,10.85
2022-07-28T05:05:31.570Z,10.05
2022-07-28T05:07:58.185Z,9.98
2022-07-28T05:10:24.849Z,10.07
2022-07-28T05:12:52.505Z,9.43
2022-07-28T05:15:19.477Z,9.10
2022-07-28T05:17:46.057Z,9.23
2022-07-28T05:20:13.827Z,8.82
2022-07-28T05:22:45.611Z,9.30
2022-07-28T05:25:16.408Z,9.38
2022-07-28T05:27:43.654Z,9.70
2022-07-28T05:32:37.584Z,9.70
2022-07-28T05:35:05.083Z,9.00
2022-07-28T05:37:36.032Z,9.57
2022-07-28T05:40:08.362Z,9.70
2022-07-28T05:42:37.477Z,9.75
2022-07-28T05:45:16.439Z,9.75
2022-07-28T05:47:52.792Z,9.90
2022-07-28T05:50:21.511Z,9.45
2022-07-28T05:52:49.310Z,9.45
2022-07-28T05:55:16.340Z,9.30
2022-07-28T05:57:43.587Z,9.48
2022-07-28T06:02:39.614Z,10.18
2022-07-28T06:05:06.973Z,10.45
2022-07-28T06:07:43.766Z,10.40
2022-07-28T06:10:15.529Z,10.82
2022-07-28T06:12:48.194Z,10.73
2022-07-28T06:15:21.572Z,10.40
2022-07-28T06:17:52.372Z,10.90
2022-07-28T06:20:22.606Z,10.38
2022-07-28T06:22:54.106Z,10.98
2022-07-28T06:25:22.722Z,10.30
2022-07-28T06:27:51.787Z,9.43
2022-07-28T06:30:19.408Z,9.50
2022-07-28T06:32:47.149Z,9.38
2022-07-28T06:35:16.539Z,9.95
2022-07-28T06:37:47.841Z,9.10
2022-07-28T06:40:16.083Z,8.80
2022-07-28T06:42:43.639Z,8.43
2022-07-28T06:45:19.717Z,8.07
2022-07-28T06:47:52.565Z,8.43
2022-07-28T06:50:25.745Z,8.00
2022-07-28T06:52:55.327Z,7.93
2022-07-28T06:55:22.067Z,7.97
2022-07-28T06:57:49.271Z,7.78
2022-07-28T07:00:16.552Z,8.23
2022-07-28T07:02:43.515Z,8.02
2022-07-28T07:07:42.810Z,8.05
2022-07-28T07:10:10.882Z,7.93
2022-07-28T07:12:38.206Z,8.63
2022-07-28T07:15:05.388Z,8.90
2022-07-28T07:17:32.134Z,8.88
2022-07-28T07:20:01.199Z,9.85
2022-07-28T07:22:27.783Z,9.35
2022-07-28T07:24:57.144Z,10.82
2022-07-28T07:27:24.612Z,9.85
2022-07-28T07:29:51.167Z,10.27
2022-07-28T07:32:17.742Z,11.10
2022-07-28T07:34:44.448Z,10.77
2022-07-28T07:37:13.774Z,10.73
2022-07-28T07:39:41.505Z,9.70
2022-07-28T07:42:08.673Z,9.48
2022-07-28T07:47:02.083Z,10.32
2022-07-28T07:49:43.449Z,9.68
2022-07-28T07:52:12.385Z,10.18
2022-07-28T07:54:39.004Z,10.00
2022-07-28T07:57:05.677Z,10.38
2022-07-28T07:59:32.237Z,8.98
2022-07-28T08:01:58.904Z,9.82
2022-07-28T08:04:25.715Z,9.75
2022-07-28T08:06:55.301Z,10.23
2022-07-28T08:09:22.457Z,9.98
2022-07-28T08:11:49.131Z,10.25
2022-07-28T08:14:16.256Z,10.55
2022-07-28T08:16:43.207Z,9.95
2022-07-28T08:19:09.851Z,9.77
2022-07-28T08:21:38.447Z,9.27
2022-07-28T08:24:05.453Z,10.02
2022-07-28T08:26:32.074Z,9.80
2022-07-28T08:28:58.680Z,9.70
2022-07-28T08:31:25.430Z,9.60
2022-07-28T08:33:53.644Z,8.75
2022-07-28T08:36:21.477Z,8.25
2022-07-28T08:38:48.123Z,8.20
2022-07-28T08:41:33.718Z,8.23
2022-07-28T08:44:06.156Z,8.30
2022-07-28T08:46:36.402Z,8.35
2022-07-28T08:49:08.382Z,8.18
2022-07-28T08:51:36.065Z,7.93
2022-07-28T08:54:03.936Z,8.50
2022-07-28T08:56:31.679Z,8.18
2022-07-28T08:58:58.617Z,8.77
2022-07-28T09:01:25.442Z,8.35
2022-07-28T09:04:07.686Z,8.30
2022-07-28T09:06:35.222Z,8.23
2022-07-28T09:09:01.789Z,7.80
2022-07-28T09:11:28.936Z,7.95
2022-07-28T09:16:22.730Z,8.27
2022-07-28T09:18:49.490Z,8.60
2022-07-28T09:21:16.231Z,8.40
2022-07-28T09:23:45.578Z,8.98
2022-07-28T09:26:13.453Z,8.57
2022-07-28T09:28:58.079Z,8.63
2022-07-28T09:31:27.614Z,8.90
2022-07-28T09:34:00.426Z,8.80
2022-07-28T09:36:28.880Z,9.30
2022-07-28T09:38:56.893Z,8.77
2022-07-28T09:41:23.946Z,8.65
2022-07-28T09:46:24.545Z,8.63
2022-07-28T09:49:01.448Z,9.05
2022-07-28T09:54:10.518Z,9.10
2022-07-28T09:56:39.346Z,9.23
2022-07-28T09:59:08.113Z,9.15
2022-07-28T10:01:53.477Z,10.02
2022-07-28T10:04:34.559Z,9.68
2022-07-28T10:07:05.718Z,9.50
2022-07-28T10:09:33.105Z,10.20
2022-07-28T10:12:22.863Z,9.45
2022-07-28T10:14:51.930Z,9.68
2022-07-28T10:17:29.705Z,9.75
2022-07-28T10:20:01.571Z,9.77
2022-07-28T10:22:33.717Z,9.07
2022-07-28T10:25:10.634Z,8.75
2022-07-28T10:30:07.958Z,9.45
2022-07-28T10:32:41.493Z,9.18
2022-07-28T10:35:11.318Z,8.70
2022-07-28T10:37:42.761Z,9.32
2022-07-28T10:40:11.575Z,10.20
2022-07-28T10:42:41.593Z,9.95
2022-07-28T10:45:12.116Z,10.48
2022-07-28T10:47:38.708Z,10.95
2022-07-28T10:50:05.846Z,10.50
2022-07-28T10:55:50.010Z,10.50
2022-07-28T10:58:25.034Z,10.43
2022-07-28T11:00:57.172Z,10.35
2022-07-28T11:03:44.211Z,10.43
2022-07-28T11:06:31.426Z,10.52
2022-07-28T11:09:00.709Z,10.00
2022-07-28T11:11:44.622Z,9.13
2022-07-28T11:14:24.507Z,9.85
2022-07-28T11:17:11.508Z,10.10
2022-07-28T11:20:16.280Z,10.63
2022-07-28T11:22:33.686Z,10.15
2022-07-28T11:25:21.115Z,10.70
2022-07-28T11:27:51.499Z,10.85
2022-07-28T11:30:35.945Z,9.93
2022-07-28T11:33:09.378Z,10.20
2022-07-28T11:35:39.207Z,10.05
2022-07-28T11:38:06.006Z,10.00
2022-07-28T11:40:36.594Z,11.38
2022-07-28T11:43:22.403Z,10.25
2022-07-28T11:46:02.066Z,10.27
2022-07-28T11:48:29.846Z,9.88
2022-07-28T11:51:05.403Z,11.13
2022-07-28T11:53:35.626Z,10.23
2022-07-28T11:56:10.886Z,10.02
2022-07-28T11:58:38.485Z,9.95
2022-07-28T12:01:19.967Z,10.13
2022-07-28T12:03:55.457Z,10.70
2022-07-28T12:06:28.527Z,10.10
2022-07-28T12:09:02.304Z,9.88
2022-07-28T12:11:33.635Z,11.63
2022-07-28T12:14:08.667Z,11.10
2022-07-28T12:16:37.306Z,12.52
2022-07-28T12:19:05.329Z,12.50
2022-07-28T12:21:53.870Z,13.23
2022-07-28T12:24:44.811Z,12.75
2022-07-28T12:27:14.890Z,13.20
2022-07-28T12:29:42.226Z,13.18
2022-07-28T12:32:12.996Z,13.57
2022-07-28T12:34:44.433Z,13.85
2022-07-28T12:37:13.834Z,13.52
2022-07-28T12:39:43.299Z,13.60
2022-07-28T12:42:12.085Z,13.00
2022-07-28T12:44:44.520Z,14.02
2022-07-28T12:47:13.055Z,12.93
2022-07-28T12:49:41.658Z,12.93
2022-07-28T12:52:22.989Z,12.50
2022-07-28T12:54:54.622Z,12.50
2022-07-28T12:57:50.786Z,11.35
2022-07-28T13:00:23.906Z,12.43
2022-07-28T13:02:52.856Z,12.18
2022-07-28T13:05:55.420Z,11.73
2022-07-28T13:08:29.334Z,12.23
2022-07-28T13:10:58.967Z,13.05
2022-07-28T13:13:26.858Z,12.27
2022-07-28T13:16:13.691Z,13.15
2022-07-28T13:18:45.276Z,13.65
2022-07-28T13:21:12.197Z,12.95
2022-07-28T13:26:07.255Z,12.63
2022-07-28T13:28:34.583Z,13.13
2022-07-28T13:31:01.451Z,12.80
2022-07-28T13:35:56.799Z,11.95
2022-07-28T13:45:43.046Z,11.85
2022-07-28T13:48:09.644Z,12.88
2022-07-28T13:50:36.592Z,11.75
2022-07-28T13:53:03.256Z,12.82
2022-07-28T13:55:29.887Z,12.68
2022-07-28T13:57:56.808Z,12.70
2022-07-28T14:00:24.128Z,12.65
2022-07-28T14:02:51.639Z,12.75
2022-07-28T14:05:18.691Z,12.80
2022-07-28T14:07:48.590Z,12.77
2022-07-28T14:10:17.331Z,12.45
2022-07-28T14:12:44.943Z,12.73
2022-07-28T14:30:21.767Z,12.65
2022-07-28T14:32:48.754Z,12.00
2022-07-28T14:35:15.992Z,13.00
2022-07-28T14:40:30.524Z,11.70
2022-07-28T14:42:57.121Z,12.70
2022-07-28T14:45:23.745Z,12.77
2022-07-28T14:47:50.375Z,12.27
2022-07-28T14:50:16.964Z,14.00
2022-07-28T14:52:45.130Z,12.80
2022-07-28T14:55:12.640Z,12.57
2022-07-28T14:57:51.762Z,11.90
2022-07-28T15:00:22.877Z,11.63
2022-07-28T15:02:51.438Z,13.32
2022-07-28T15:05:18.823Z,12.70
2022-07-28T15:07:49.176Z,12.10
2022-07-28T15:10:16.304Z,11.38
2022-07-28T15:12:42.994Z,11.50
2022-07-28T15:15:10.058Z,11.68
2022-07-28T15:17:37.594Z,12.02
2022-07-28T15:20:06.939Z,11.00
2022-07-28T15:22:34.959Z,11.45
2022-07-28T15:25:01.748Z,11.43
2022-07-28T15:27:33.212Z,11.68
2022-07-28T15:30:02.742Z,11.85
2022-07-28T15:32:31.306Z,11.43
2022-07-28T15:34:58.694Z,11.27
2022-07-28T15:37:26.692Z,11.75
2022-07-28T15:39:53.299Z,11.50
2022-07-28T15:42:19.990Z,11.25
2022-07-28T15:44:46.598Z,10.93
2022-07-28T15:47:13.690Z,11.75
2022-07-28T15:49:40.360Z,11.88
2022-07-28T15:52:06.988Z,11.80
2022-07-28T15:54:33.627Z,11.50
2022-07-28T15:57:00.227Z,11.90
2022-07-28T15:59:49.566Z,11.25
2022-07-28T16:02:17.857Z,11.82
2022-07-28T16:04:53.134Z,11.75
2022-07-28T16:07:28.213Z,8.93
2022-07-28T16:09:56.117Z,7.97
2022-07-28T16:12:25.379Z,7.90
2022-07-28T16:14:55.889Z,8.50
2022-07-28T16:17:22.998Z,9.95
2022-07-28T16:22:19.281Z,10.93
2022-07-28T16:24:46.446Z,8.95
2022-07-28T17:33:58.137Z,16.17
2022-07-28T17:36:25.790Z,17.08
2022-07-28T17:38:52.410Z,15.82
2022-07-28T17:41:19.276Z,16.38
2022-07-28T17:43:45.927Z,16.83
2022-07-28T17:46:12.712Z,17.05
2022-07-28T17:48:39.828Z,15.93
2022-07-28T17:51:06.682Z,15.60
2022-07-28T17:53:33.705Z,16.45
2022-07-28T17:56:08.615Z,16.33
2022-07-28T17:58:36.156Z,16.40
2022-07-28T18:01:10.304Z,16.38
2022-07-28T18:03:56.894Z,16.42
2022-07-28T18:06:32.284Z,16.55
2022-07-28T18:09:05.238Z,17.00
2022-07-28T18:11:33.619Z,16.60
2022-07-28T18:14:04.325Z,15.80
2022-07-28T18:16:33.104Z,16.85
2022-07-28T18:18:59.745Z,16.90
2022-07-28T18:21:26.727Z,16.35
2022-07-28T18:23:55.034Z,17.73
2022-07-28T18:26:22.122Z,16.35
2022-07-28T18:28:49.114Z,16.13
2022-07-28T18:31:15.887Z,16.65
2022-07-28T18:33:42.556Z,16.45
2022-07-28T18:36:09.178Z,16.33
2022-07-28T18:38:35.826Z,16.60
2022-07-28T18:41:02.440Z,16.38
2022-07-28T18:43:29.023Z,16.10
2022-07-28T18:45:55.618Z,16.35
2022-07-28T18:48:25.418Z,16.95
2022-07-28T18:50:52.261Z,17.23
2022-07-28T18:53:18.854Z,16.50
2022-07-28T18:55:45.454Z,16.00
2022-07-28T18:58:12.091Z,16.00
2022-07-28T19:00:38.789Z,16.67
2022-07-28T19:03:05.454Z,16.15
2022-07-28T19:05:37.022Z,16.75
2022-07-28T19:08:07.140Z,16.45
2022-07-28T19:10:33.762Z,16.65
2022-07-28T19:13:00.362Z,17.30
2022-07-28T19:15:27.012Z,17.67
2022-07-28T19:18:11.432Z,17.92
2022-07-28T19:20:44.205Z,16.55
2022-07-28T19:23:10.836Z,15.55
2022-07-28T19:25:39.622Z,16.33
2022-07-28T19:28:07.010Z,15.68
2022-07-28T19:30:34.479Z,16.00
2022-07-28T19:33:01.153Z,15.73
2022-07-28T19:35:27.918Z,15.90
2022-07-28T19:37:56.683Z,15.00
2022-07-28T19:40:25.294Z,15.32
2022-07-28T19:42:51.938Z,15.60
2022-07-28T19:45:18.617Z,16.25
2022-07-28T19:47:45.216Z,15.55
2022-07-28T19:50:12.103Z,14.48
2022-07-28T19:52:38.702Z,13.10
2022-07-28T19:55:06.675Z,12.57
2022-07-28T19:57:35.574Z,13.88
2022-07-28T20:00:02.400Z,14.32
2022-07-28T20:02:29.429Z,13.80
2022-07-28T20:04:56.239Z,15.40
2022-07-28T20:07:23.930Z,14.25
2022-07-28T20:09:50.651Z,14.43
2022-07-28T20:12:17.754Z,14.63
2022-07-28T20:14:44.331Z,14.52
2022-07-28T20:17:24.429Z,15.82
2022-07-28T20:19:57.550Z,15.05
2022-07-28T20:22:25.155Z,14.43
2022-07-28T20:24:51.861Z,13.05
2022-07-28T20:27:18.598Z,12.95
2022-07-28T20:29:45.311Z,13.57
2022-07-28T20:32:11.960Z,13.95
2022-07-28T20:34:38.698Z,13.98
2022-07-28T20:37:05.465Z,14.68
2022-07-28T20:39:44.400Z,14.80
2022-07-28T20:42:11.756Z,14.57
2022-07-28T20:44:38.552Z,14.27
2022-07-28T20:47:05.394Z,14.77
2022-07-28T20:49:32.241Z,14.88
2022-07-28T20:51:59.239Z,14.50
2022-07-28T20:54:26.475Z,14.45
2022-07-28T20:59:19.618Z,15.80
2022-07-28T21:01:46.413Z,15.55
2022-07-28T21:04:13.727Z,14.77
2022-07-28T21:06:51.279Z,15.60
2022-07-28T21:09:20.036Z,15.88
2022-07-28T21:11:46.608Z,15.55
2022-07-28T21:14:13.553Z,15.23
2022-07-28T21:16:40.515Z,16.45
2022-07-28T21:19:08.693Z,16.10
2022-07-28T21:21:35.539Z,15.90
2022-07-28T21:24:02.174Z,15.02
2022-07-28T21:26:28.856Z,16.17
2022-07-28T21:32:02.283Z,14.65
2022-07-28T21:34:30.100Z,14.18
2022-07-28T21:36:57.313Z,14.48
2022-07-28T21:39:23.957Z,13.27
2022-07-28T21:41:50.591Z,14.68
2022-07-28T21:44:17.955Z,13.90
2022-07-28T21:46:45.824Z,13.77
2022-07-28T21:49:12.674Z,14.13
2022-07-28T21:51:40.076Z,14.68
2022-07-28T21:59:02.655Z,15.63
2022-07-28T22:01:29.675Z,16.40
2022-07-28T22:03:56.831Z,16.27
2022-07-28T22:06:23.460Z,16.50
2022-07-28T22:08:53.659Z,16.38
2022-07-28T22:11:21.894Z,16.60
2022-07-28T22:13:48.641Z,15.63
2022-07-28T22:16:15.461Z,16.30
2022-07-28T22:18:42.135Z,16.13
2022-07-28T22:21:08.748Z,15.82
2022-07-28T22:23:35.402Z,15.70
2022-07-28T22:26:02.272Z,15.02
2022-07-28T22:28:30.701Z,16.15
2022-07-28T22:30:59.007Z,16.77
2022-07-28T22:33:37.307Z,15.80
2022-07-28T22:36:04.685Z,17.08
2022-07-28T22:40:58.615Z,16.85
2022-07-28T22:43:25.406Z,17.13
2022-07-28T22:45:52.067Z,16.63
2022-07-28T22:48:19.029Z,16.23
2022-07-28T22:50:45.728Z,17.98
2022-07-28T22:53:12.312Z,17.23
2022-07-28T22:55:40.280Z,18.67
2022-07-28T22:58:06.994Z,17.98
2022-07-28T23:00:36.261Z,17.92
2022-07-28T23:03:04.363Z,17.10
2022-07-28T23:05:31.090Z,17.98
2022-07-28T23:07:58.956Z,17.27
2022-07-28T23:10:26.132Z,18.67
2022-07-28T23:12:53.586Z,18.25
2022-07-28T23:15:21.766Z,17.85
2022-07-28T23:17:48.419Z,17.52
2022-07-28T23:20:15.185Z,18.75
2022-07-28T23:22:41.782Z,18.75
2022-07-28T23:25:08.932Z,17.20
2022-07-28T23:27:35.514Z,17.80
2022-07-28T23:30:02.153Z,18.00
2022-07-28T23:32:28.776Z,18.00
2022-07-28T23:34:55.376Z,18.25
2022-07-28T23:37:22.024Z,17.33
2022-07-28T23:39:48.658Z,17.08
2022-07-28T23:42:15.745Z,16.85
2022-07-28T23:44:42.325Z,16.73
2022-07-28T23:47:08.963Z,18.23
2022-07-28T23:49:35.642Z,17.50
2022-07-28T23:52:02.237Z,17.25
2022-07-28T23:54:28.817Z,17.45
2022-07-28T23:56:57.233Z,17.30
2022-07-28T23:59:24.450Z,17.00
